createdAt,value
2023-01-03T00:01:32.066Z,0.80
2023-01-03T00:04:01.920Z,0.80
2023-01-03T00:06:32.827Z,0.70
2023-01-03T00:09:03.384Z,0.80
2023-01-03T00:11:53.422Z,0.60
2023-01-03T00:14:24.570Z,0.70
2023-01-03T00:16:55.407Z,0.90
2023-01-03T00:19:25.523Z,0.63
2023-01-03T00:21:54.064Z,1.10
2023-01-03T00:24:22.925Z,0.90
2023-01-03T00:26:52.914Z,0.80
2023-01-03T00:29:21.416Z,1.00
2023-01-03T00:31:49.923Z,0.80
2023-01-03T00:34:18.285Z,0.70
2023-01-03T00:36:46.813Z,0.90
2023-01-03T00:39:15.617Z,0.80
2023-01-03T00:41:43.972Z,0.97
2023-01-03T00:44:15.019Z,0.80
2023-01-03T00:46:44.060Z,0.80
2023-01-03T00:49:12.811Z,0.90
2023-01-03T00:51:42.808Z,0.83
2023-01-03T00:54:14.590Z,1.00
2023-01-03T00:56:45.195Z,1.03
2023-01-03T00:59:17.203Z,1.27
2023-01-03T01:01:48.259Z,0.93
2023-01-03T01:04:20.810Z,1.20
2023-01-03T01:06:53.665Z,0.90
2023-01-03T01:09:25.239Z,1.23
2023-01-03T01:11:54.192Z,1.03
2023-01-03T01:14:27.208Z,0.93
2023-01-03T01:16:58.004Z,1.00
2023-01-03T01:19:29.607Z,1.43
2023-01-03T01:21:58.271Z,1.20
2023-01-03T01:24:27.240Z,1.77
2023-01-03T01:27:44.197Z,1.20
2023-01-03T01:30:14.233Z,1.07
2023-01-03T01:32:42.509Z,1.53
2023-01-03T01:35:10.992Z,1.40
2023-01-03T01:37:39.353Z,1.10
2023-01-03T01:40:08.957Z,1.23
2023-01-03T01:42:54.956Z,1.07
2023-01-03T01:45:24.931Z,0.90
2023-01-03T01:47:56.332Z,1.10
2023-01-03T01:50:38.006Z,0.90
2023-01-03T01:53:11.785Z,1.00
2023-01-03T01:55:44.021Z,0.93
2023-01-03T01:58:13.544Z,0.90
2023-01-03T02:00:45.348Z,0.77
2023-01-03T02:03:14.639Z,1.10
2023-01-03T02:05:47.650Z,0.80
2023-01-03T02:08:16.875Z,1.10
2023-01-03T02:11:06.696Z,1.00
2023-01-03T02:13:45.758Z,1.03
2023-01-03T02:16:48.473Z,1.23
2023-01-03T02:20:12.556Z,0.90
2023-01-03T02:23:22.698Z,1.10
2023-01-03T02:26:34.752Z,1.10
2023-01-03T02:29:41.056Z,0.90
2023-01-03T02:32:16.803Z,0.80
2023-01-03T02:34:53.655Z,0.90
2023-01-03T02:37:32.188Z,1.03
2023-01-03T02:40:10.008Z,0.90
2023-01-03T02:43:02.831Z,0.90
2023-01-03T02:45:53.899Z,0.80
2023-01-03T02:48:35.646Z,0.80
2023-01-03T02:51:09.932Z,0.77
2023-01-03T02:53:43.207Z,0.83
2023-01-03T02:56:18.070Z,1.10
2023-01-03T02:58:49.642Z,1.10
2023-01-03T03:01:19.622Z,0.80
2023-01-03T03:03:50.414Z,0.90
2023-01-03T03:06:26.777Z,1.03
2023-01-03T03:08:55.107Z,1.20
2023-01-03T03:11:43.605Z,1.10
2023-01-03T03:14:18.662Z,1.00
2023-01-03T03:16:51.203Z,0.90
2023-01-03T03:19:45.730Z,0.83
2023-01-03T03:22:46.100Z,1.00
2023-01-03T03:25:18.628Z,1.00
2023-01-03T03:28:06.858Z,1.00
2023-01-03T03:30:40.015Z,0.83
2023-01-03T03:33:10.714Z,0.83
2023-01-03T03:35:47.963Z,0.77
2023-01-03T03:38:22.521Z,0.57
2023-01-03T03:41:20.353Z,0.83
2023-01-03T03:44:14.110Z,0.80
2023-01-03T03:46:54.748Z,0.90
2023-01-03T03:49:41.766Z,0.80
2023-01-03T03:52:17.160Z,0.70
2023-01-03T03:54:52.227Z,0.70
2023-01-03T03:57:26.567Z,0.90
2023-01-03T04:00:00.304Z,0.87
2023-01-03T04:02:31.599Z,0.80
2023-01-03T04:05:05.974Z,0.87
2023-01-03T04:07:35.998Z,0.70
2023-01-03T04:10:05.447Z,1.27
2023-01-03T04:12:33.761Z,0.80
2023-01-03T04:15:03.870Z,0.80
2023-01-03T04:17:32.202Z,1.00
2023-01-03T04:20:00.532Z,0.80
2023-01-03T04:22:28.818Z,1.17
2023-01-03T04:24:58.478Z,1.00
2023-01-03T04:27:26.779Z,1.67
2023-01-03T04:29:55.100Z,1.60
2023-01-03T04:32:24.749Z,1.47
2023-01-03T04:34:53.111Z,1.33
2023-01-03T04:37:21.540Z,1.20
2023-01-03T04:39:49.829Z,1.33
2023-01-03T04:42:36.807Z,1.47
2023-01-03T04:45:06.842Z,1.23
2023-01-03T04:47:35.164Z,2.20
2023-01-03T04:50:03.531Z,1.80
2023-01-03T04:52:32.158Z,1.70
2023-01-03T04:55:00.471Z,2.00
2023-01-03T04:57:30.131Z,2.37
2023-01-03T04:59:58.443Z,4.63
2023-01-03T05:02:26.841Z,5.13
2023-01-03T05:04:55.189Z,4.80
2023-01-03T05:07:23.715Z,5.50
2023-01-03T05:09:52.011Z,4.50
2023-01-03T05:12:20.385Z,3.97
2023-01-03T05:14:50.069Z,3.37
2023-01-03T05:17:20.341Z,2.87
2023-01-03T05:20:02.970Z,2.73
2023-01-03T05:22:48.905Z,2.20
2023-01-03T05:25:34.889Z,2.10
2023-01-03T05:28:04.380Z,2.20
2023-01-03T05:30:34.070Z,1.80
2023-01-03T05:33:02.366Z,1.77
2023-01-03T05:35:30.688Z,1.30
2023-01-03T05:37:59.143Z,1.53
2023-01-03T05:40:27.445Z,1.60
2023-01-03T05:42:55.746Z,1.77
2023-01-03T05:45:25.982Z,2.00
2023-01-03T05:47:58.692Z,2.47
2023-01-03T05:50:27.167Z,2.10
2023-01-03T05:52:55.438Z,2.13
2023-01-03T05:55:23.844Z,2.40
2023-01-03T05:57:53.555Z,2.90
2023-01-03T06:00:22.439Z,2.00
2023-01-03T06:02:50.767Z,2.40
2023-01-03T06:05:20.526Z,2.40
2023-01-03T06:07:48.964Z,1.70
2023-01-03T06:10:17.762Z,2.20
2023-01-03T06:12:46.049Z,2.03
2023-01-03T06:15:14.400Z,2.27
2023-01-03T06:18:02.593Z,2.90
2023-01-03T06:20:32.628Z,3.00
2023-01-03T06:23:00.962Z,3.03
2023-01-03T06:25:29.363Z,4.40
2023-01-03T06:27:57.682Z,7.33
2023-01-03T06:30:26.599Z,8.03
2023-01-03T06:32:54.943Z,8.13
2023-01-03T06:35:23.306Z,7.90
2023-01-03T06:37:52.950Z,6.93
2023-01-03T06:40:21.271Z,7.60
2023-01-03T06:42:49.722Z,7.37
2023-01-03T06:45:35.828Z,3.53
2023-01-03T06:48:25.770Z,4.57
2023-01-03T06:51:11.714Z,4.27
2023-01-03T06:53:44.086Z,3.70
2023-01-03T06:56:12.729Z,3.30
2023-01-03T06:58:42.280Z,2.50
2023-01-03T07:01:10.812Z,2.50
2023-01-03T07:03:39.221Z,2.60
2023-01-03T07:06:07.987Z,2.57
2023-01-03T07:08:36.275Z,2.90
2023-01-03T07:11:06.261Z,2.37
2023-01-03T07:14:06.489Z,2.00
2023-01-03T07:16:37.219Z,2.40
2023-01-03T07:19:07.201Z,2.10
2023-01-03T07:21:36.494Z,2.43
2023-01-03T07:24:07.386Z,2.10
2023-01-03T07:26:37.423Z,2.27
2023-01-03T07:29:07.935Z,1.90
2023-01-03T07:31:40.508Z,2.10
2023-01-03T07:34:09.379Z,2.10
2023-01-03T07:36:37.922Z,1.80
2023-01-03T07:39:06.335Z,2.30
2023-01-03T07:41:53.727Z,2.80
2023-01-03T07:44:22.002Z,2.40
2023-01-03T07:46:52.173Z,4.27
2023-01-03T07:49:20.542Z,4.27
2023-01-03T07:51:48.832Z,5.27
2023-01-03T07:54:17.080Z,5.27
2023-01-03T07:56:46.770Z,5.97
2023-01-03T07:59:15.066Z,6.50
2023-01-03T08:01:43.490Z,5.87
2023-01-03T08:04:11.863Z,5.97
2023-01-03T08:06:40.395Z,5.33
2023-01-03T08:09:26.271Z,5.63
2023-01-03T08:12:13.682Z,5.97
2023-01-03T08:14:41.987Z,6.23
2023-01-03T08:17:10.304Z,5.30
2023-01-03T08:19:45.190Z,5.73
2023-01-03T08:22:16.164Z,5.53
2023-01-03T08:24:44.533Z,5.90
2023-01-03T08:27:14.239Z,5.93
2023-01-03T08:29:42.572Z,5.53
2023-01-03T08:32:11.411Z,5.37
2023-01-03T08:34:44.297Z,4.67
2023-01-03T08:37:14.977Z,4.87
2023-01-03T08:39:48.163Z,4.70
2023-01-03T08:42:20.747Z,4.70
2023-01-03T08:44:49.940Z,4.10
2023-01-03T08:47:19.002Z,5.00
2023-01-03T08:49:47.444Z,4.93
2023-01-03T08:52:15.756Z,4.83
2023-01-03T08:54:44.357Z,6.23
2023-01-03T08:57:12.682Z,7.20
2023-01-03T08:59:42.392Z,6.13
2023-01-03T09:02:10.943Z,7.43
2023-01-03T09:04:39.472Z,9.30
2023-01-03T09:07:07.925Z,11.37
2023-01-03T09:09:36.259Z,12.40
2023-01-03T09:12:04.926Z,12.93
2023-01-03T09:14:33.261Z,13.13
2023-01-03T09:17:02.966Z,12.37
2023-01-03T09:19:31.331Z,13.43
2023-01-03T09:21:59.619Z,12.80
2023-01-03T09:24:27.971Z,11.97
2023-01-03T09:26:56.403Z,12.33
2023-01-03T09:29:24.772Z,11.70
2023-01-03T09:31:53.372Z,10.97
2023-01-03T09:34:23.054Z,10.37
2023-01-03T09:36:51.389Z,11.20
2023-01-03T09:39:20.250Z,10.47
2023-01-03T09:42:10.263Z,10.23
2023-01-03T09:44:40.681Z,9.10
2023-01-03T09:47:20.304Z,8.47
2023-01-03T09:50:26.679Z,7.70
2023-01-03T09:53:02.924Z,7.73
2023-01-03T09:55:57.810Z,7.97
2023-01-03T09:58:43.601Z,8.20
2023-01-03T10:01:53.910Z,8.17
2023-01-03T10:05:05.185Z,7.87
2023-01-03T10:07:55.144Z,7.13
2023-01-03T10:10:32.691Z,6.10
2023-01-03T10:13:20.165Z,6.07
2023-01-03T10:16:00.335Z,6.40
2023-01-03T10:18:53.878Z,5.37
2023-01-03T10:21:33.879Z,5.63
2023-01-03T10:24:02.503Z,3.03
2023-01-03T10:26:34.562Z,3.60
2023-01-03T10:29:02.944Z,2.40
2023-01-03T10:31:47.331Z,2.93
2023-01-03T10:34:15.716Z,1.93
2023-01-03T10:36:45.350Z,1.20
2023-01-03T10:39:13.681Z,1.50
2023-01-03T10:41:46.214Z,1.60
2023-01-03T10:44:26.219Z,1.40
2023-01-03T10:46:56.927Z,1.60
2023-01-03T10:49:29.299Z,1.77
2023-01-03T10:52:06.500Z,1.37
2023-01-03T10:54:50.689Z,1.77
2023-01-03T10:57:43.789Z,2.13
2023-01-03T11:00:31.392Z,1.70
2023-01-03T11:03:13.663Z,3.10
2023-01-03T11:05:44.111Z,2.13
2023-01-03T11:08:24.100Z,2.43
2023-01-03T11:10:58.821Z,1.70
2023-01-03T11:13:34.479Z,1.50
2023-01-03T11:16:05.556Z,1.87
2023-01-03T11:18:33.885Z,2.50
2023-01-03T11:21:13.909Z,2.90
2023-01-03T11:24:01.990Z,2.27
2023-01-03T11:26:45.259Z,3.33
2023-01-03T11:29:54.433Z,1.80
2023-01-03T11:32:40.805Z,2.30
2023-01-03T11:35:43.466Z,1.50
2023-01-03T11:38:45.428Z,1.90
2023-01-03T11:41:33.912Z,1.33
2023-01-03T11:44:47.645Z,0.77
2023-01-03T11:47:27.393Z,1.27
2023-01-03T11:50:16.903Z,1.10
2023-01-03T11:52:51.325Z,1.40
2023-01-03T11:55:57.024Z,1.60
2023-01-03T11:59:01.571Z,1.50
2023-01-03T12:01:49.356Z,1.50
2023-01-03T12:04:32.701Z,1.60
2023-01-03T12:10:12.365Z,1.20
2023-01-03T12:13:16.972Z,2.40
2023-01-03T12:15:52.121Z,2.20
2023-01-03T12:18:30.243Z,1.73
2023-01-03T12:21:03.583Z,1.90
2023-01-03T12:23:39.261Z,1.73
2023-01-03T12:26:11.359Z,1.60
2023-01-03T12:28:43.192Z,1.20
2023-01-03T12:31:29.546Z,1.40
2023-01-03T12:34:10.796Z,1.20
2023-01-03T12:36:48.754Z,1.20
2023-01-03T12:39:37.257Z,1.50
2023-01-03T12:42:13.507Z,1.30
2023-01-03T12:44:45.759Z,1.30
2023-01-03T12:47:23.014Z,1.60
2023-01-03T12:50:00.694Z,1.50
2023-01-03T12:52:33.527Z,1.57
2023-01-03T12:55:09.444Z,2.33
2023-01-03T12:58:13.889Z,3.30
2023-01-03T13:00:56.774Z,2.10
2023-01-03T13:03:32.377Z,4.70
2023-01-03T13:06:05.805Z,3.20
2023-01-03T13:08:42.675Z,1.90
2023-01-03T13:11:20.909Z,2.83
2023-01-03T13:13:57.069Z,3.33
2023-01-03T13:16:49.820Z,1.67
2023-01-03T13:19:58.510Z,1.80
2023-01-03T13:22:51.972Z,1.50
2023-01-03T13:25:41.939Z,1.27
2023-01-03T13:28:35.749Z,1.23
2023-01-03T13:31:40.955Z,1.30
2023-01-03T13:34:35.249Z,1.30
2023-01-03T13:37:22.347Z,0.90
2023-01-03T13:40:04.549Z,1.10
2023-01-03T13:42:38.698Z,1.10
2023-01-03T13:46:03.546Z,0.80
2023-01-03T13:48:54.385Z,0.80
2023-01-03T13:51:41.623Z,0.80
2023-01-03T13:54:34.941Z,0.90
2023-01-03T13:57:09.013Z,1.20
2023-01-03T13:59:44.115Z,1.53
2023-01-03T14:03:19.309Z,1.53
2023-01-03T14:06:37.781Z,1.37
2023-01-03T14:09:52.499Z,1.27
2023-01-03T14:13:06.090Z,0.90
2023-01-03T14:15:35.129Z,1.00
2023-01-03T14:18:20.918Z,1.30
2023-01-03T14:20:53.538Z,1.17
2023-01-03T14:23:58.537Z,0.60
2023-01-03T14:26:19.199Z,1.00
2023-01-03T14:28:50.318Z,0.80
2023-01-03T14:31:22.636Z,1.00
2023-01-03T14:33:57.171Z,0.90
2023-01-03T14:36:25.850Z,0.70
2023-01-03T14:38:56.473Z,1.00
2023-01-03T14:41:34.408Z,1.30
2023-01-03T14:44:07.815Z,1.20
2023-01-03T14:46:37.670Z,0.97
2023-01-03T14:49:20.441Z,0.80
2023-01-03T14:51:49.006Z,1.03
2023-01-03T14:54:20.868Z,1.50
2023-01-03T14:56:50.675Z,1.20
2023-01-03T14:59:23.013Z,1.50
2023-01-03T15:01:51.985Z,1.10
2023-01-03T15:04:20.934Z,0.90
2023-01-03T15:07:09.588Z,1.60
2023-01-03T15:09:41.269Z,1.40
2023-01-03T15:12:14.983Z,1.80
2023-01-03T15:14:43.364Z,1.87
2023-01-03T15:17:19.382Z,2.53
2023-01-03T15:19:53.048Z,3.33
2023-01-03T15:22:25.771Z,2.20
2023-01-03T15:25:08.255Z,2.80
2023-01-03T15:27:46.232Z,2.03
2023-01-03T15:30:25.183Z,1.80
2023-01-03T15:33:02.021Z,1.73
2023-01-03T15:35:37.169Z,1.50
2023-01-03T15:38:14.958Z,1.40
2023-01-03T15:40:44.772Z,4.90
2023-01-03T15:43:19.626Z,3.83
2023-01-03T15:45:57.969Z,6.03
2023-01-03T15:48:27.911Z,4.33
2023-01-03T15:50:57.476Z,3.80
2023-01-03T15:53:29.788Z,2.63
2023-01-03T15:56:02.951Z,1.70
2023-01-03T15:58:34.031Z,1.63
2023-01-03T16:01:02.649Z,1.40
2023-01-03T16:03:33.798Z,1.57
2023-01-03T16:06:02.839Z,1.30
2023-01-03T16:08:34.249Z,1.20
2023-01-03T16:11:05.502Z,1.10
2023-01-03T16:13:39.544Z,2.10
2023-01-03T16:16:09.809Z,3.00
2023-01-03T16:18:41.776Z,3.07
2023-01-03T16:21:10.121Z,3.20
2023-01-03T16:23:38.519Z,5.23
2023-01-03T16:26:07.736Z,3.90
2023-01-03T16:28:37.408Z,5.03
2023-01-03T16:31:14.289Z,4.47
2023-01-03T16:33:44.042Z,4.77
2023-01-03T16:36:27.837Z,5.03
2023-01-03T16:38:56.124Z,4.37
2023-01-03T16:41:24.675Z,4.73
2023-01-03T16:43:54.489Z,2.93
2023-01-03T16:46:49.023Z,5.60
2023-01-03T16:49:27.015Z,4.07
2023-01-03T16:52:05.432Z,7.53
2023-01-03T16:54:54.146Z,6.10
2023-01-03T16:57:34.854Z,4.83
2023-01-03T17:00:23.740Z,3.17
2023-01-03T17:02:56.558Z,5.73
2023-01-03T17:05:30.206Z,5.80
2023-01-03T17:08:06.481Z,4.50
2023-01-03T17:10:44.576Z,6.30
2023-01-03T17:13:33.963Z,10.30
2023-01-03T17:16:13.727Z,7.50
2023-01-03T17:18:52.007Z,6.40
2023-01-03T17:21:33.805Z,4.57
2023-01-03T17:24:11.008Z,5.07
2023-01-03T17:26:48.323Z,3.70
2023-01-03T17:29:23.033Z,7.57
2023-01-03T17:31:56.725Z,6.20
2023-01-03T17:34:35.652Z,5.47
2023-01-03T17:37:19.804Z,7.70
2023-01-03T17:40:25.318Z,5.50
2023-01-03T17:43:30.273Z,5.00
2023-01-03T17:46:57.659Z,4.90
2023-01-03T17:53:11.743Z,3.90
2023-01-03T17:55:44.891Z,4.30
2023-01-03T17:58:21.604Z,5.50
2023-01-03T18:00:49.945Z,6.20
2023-01-03T18:03:18.329Z,6.03
2023-01-03T18:05:49.164Z,5.93
2023-01-03T18:08:20.605Z,4.83
2023-01-03T18:10:51.869Z,4.27
2023-01-03T18:13:24.716Z,5.40
2023-01-03T18:15:55.922Z,5.43
2023-01-03T18:18:26.614Z,5.77
2023-01-03T18:20:57.149Z,6.20
2023-01-03T18:23:29.604Z,5.87
2023-01-03T18:26:01.984Z,6.43
2023-01-03T18:28:31.031Z,7.80
2023-01-03T18:30:59.478Z,7.53
2023-01-03T18:33:27.959Z,6.90
2023-01-03T18:35:57.718Z,4.70
2023-01-03T18:38:29.502Z,4.30
2023-01-03T18:41:04.351Z,3.67
2023-01-03T18:43:33.296Z,2.80
2023-01-03T18:46:01.738Z,3.70
2023-01-03T18:48:30.168Z,3.47
2023-01-03T18:51:00.224Z,3.03
2023-01-03T18:53:32.211Z,2.93
2023-01-03T18:56:00.964Z,3.10
2023-01-03T18:58:34.789Z,3.20
2023-01-03T19:01:03.484Z,3.60
2023-01-03T19:03:34.812Z,2.90
2023-01-03T19:06:14.826Z,2.87
2023-01-03T19:08:43.227Z,2.83
2023-01-03T19:11:17.097Z,2.87
2023-01-03T19:13:53.105Z,3.30
2023-01-03T19:16:23.831Z,2.97
2023-01-03T19:18:52.687Z,3.10
2023-01-03T19:21:23.608Z,3.20
2023-01-03T19:24:00.992Z,2.90
2023-01-03T19:26:32.995Z,2.93
2023-01-03T19:29:04.625Z,3.50
2023-01-03T19:31:44.252Z,4.00
2023-01-03T19:34:17.654Z,3.20
2023-01-03T19:36:47.990Z,4.40
2023-01-03T19:39:24.696Z,4.50
2023-01-03T19:42:13.807Z,3.97
2023-01-03T19:44:42.908Z,3.40
2023-01-03T19:47:16.117Z,4.37
2023-01-03T19:49:47.173Z,3.40
2023-01-03T19:52:18.004Z,3.13
2023-01-03T19:54:46.511Z,2.27
2023-01-03T19:57:21.129Z,2.90
2023-01-03T19:59:54.040Z,2.50
2023-01-03T20:02:37.233Z,2.03
2023-01-03T20:05:14.767Z,2.57
2023-01-03T20:07:45.057Z,3.27
2023-01-03T20:10:19.845Z,3.20
2023-01-03T20:12:49.902Z,2.83
2023-01-03T20:15:27.778Z,3.00
2023-01-03T20:17:57.059Z,2.53
2023-01-03T20:20:30.300Z,2.50
2023-01-03T20:23:06.233Z,2.07
2023-01-03T20:25:38.249Z,2.00
2023-01-03T20:28:06.941Z,1.90
2023-01-03T20:30:36.148Z,1.70
2023-01-03T20:33:04.564Z,1.40
2023-01-03T20:36:08.804Z,1.40
2023-01-03T20:38:27.202Z,2.13
2023-01-03T20:40:57.344Z,1.50
2023-01-03T20:43:26.627Z,1.77
2023-01-03T20:45:57.623Z,1.20
2023-01-03T20:48:26.908Z,1.40
2023-01-03T20:50:55.414Z,1.33
2023-01-03T20:53:27.608Z,1.60
2023-01-03T20:55:56.041Z,1.47
2023-01-03T20:58:26.374Z,1.30
2023-01-03T21:01:02.135Z,1.37
2023-01-03T21:03:34.246Z,1.80
2023-01-03T21:06:03.457Z,1.87
2023-01-03T21:08:50.645Z,1.63
2023-01-03T21:11:18.943Z,2.00
2023-01-03T21:13:47.257Z,1.70
2023-01-03T21:16:28.993Z,1.50
2023-01-03T21:18:57.814Z,1.73
2023-01-03T21:21:26.443Z,1.60
2023-01-03T21:23:56.129Z,2.13
2023-01-03T21:26:24.463Z,1.80
2023-01-03T21:28:52.761Z,1.87
2023-01-03T21:31:24.036Z,1.40
2023-01-03T21:33:53.318Z,1.37
2023-01-03T21:36:26.346Z,1.60
2023-01-03T21:38:57.198Z,1.40
2023-01-03T21:41:28.087Z,1.27
2023-01-03T21:43:57.606Z,1.40
2023-01-03T21:46:27.458Z,1.40
2023-01-03T21:48:57.065Z,1.40
2023-01-03T21:51:41.145Z,1.40
2023-01-03T21:54:11.163Z,1.23
2023-01-03T21:56:45.667Z,0.90
2023-01-03T21:59:15.570Z,1.00
2023-01-03T22:02:02.721Z,1.20
2023-01-03T22:04:31.547Z,1.10
2023-01-03T22:07:01.860Z,1.00
2023-01-03T22:09:50.695Z,1.20
2023-01-03T22:12:21.466Z,1.20
2023-01-03T22:14:49.860Z,1.33
2023-01-03T22:17:18.426Z,1.40
2023-01-03T22:19:46.752Z,0.97
2023-01-03T22:22:15.064Z,1.30
2023-01-03T22:24:44.783Z,1.10
2023-01-03T22:27:13.121Z,1.20
2023-01-03T22:29:41.428Z,1.50
2023-01-03T22:32:10.427Z,1.30
2023-01-03T22:34:39.759Z,1.53
2023-01-03T22:37:08.141Z,1.30
2023-01-03T22:39:36.550Z,1.33
2023-01-03T22:42:06.442Z,1.20
2023-01-03T22:44:34.987Z,1.40
2023-01-03T22:47:03.717Z,1.10
2023-01-03T22:49:32.196Z,0.90
2023-01-03T22:52:00.578Z,1.40
2023-01-03T22:54:28.885Z,0.90
2023-01-03T22:56:57.643Z,0.70
2023-01-03T22:59:27.417Z,1.00
2023-01-03T23:01:55.905Z,0.80
2023-01-03T23:04:26.348Z,0.80
2023-01-03T23:06:55.384Z,0.70
2023-01-03T23:09:24.814Z,1.07
2023-01-03T23:12:10.522Z,0.77
2023-01-03T23:14:40.215Z,1.13
2023-01-03T23:17:26.196Z,0.87
2023-01-03T23:19:54.490Z,0.60
2023-01-03T23:22:22.799Z,0.70
2023-01-03T23:24:51.114Z,0.90
2023-01-03T23:27:19.432Z,0.70
2023-01-03T23:29:49.093Z,0.80
2023-01-03T23:32:17.437Z,0.90
2023-01-03T23:34:45.720Z,1.03
2023-01-03T23:37:14.033Z,0.97
2023-01-03T23:39:42.957Z,1.20
2023-01-03T23:42:11.326Z,1.10
2023-01-03T23:44:39.886Z,0.90
2023-01-03T23:47:12.335Z,0.87
2023-01-03T23:49:41.384Z,1.17
2023-01-03T23:52:09.832Z,0.83
2023-01-03T23:54:38.184Z,1.00
2023-01-03T23:57:06.510Z,0.90
2023-01-03T23:59:34.819Z,1.03
